sensor_id;sensor_type;location;lat;lon;timestamp;temperature;humidity
67101;DHT22;54019;61.746;16.106;2022-07-09T00:01:27;22.60;38.80
67101;DHT22;54019;61.746;16.106;2022-07-09T00:04:14;22.50;38.80
67101;DHT22;54019;61.746;16.106;2022-07-09T00:07:00;22.60;38.70
67101;DHT22;54019;61.746;16.106;2022-07-09T00:09:50;22.50;38.80
67101;DHT22;54019;61.746;16.106;2022-07-09T00:12:36;22.50;38.70
67101;DHT22;54019;61.746;16.106;2022-07-09T00:15:22;22.50;38.70
67101;DHT22;54019;61.746;16.106;2022-07-09T00:18:08;22.50;38.80
67101;DHT22;54019;61.746;16.106;2022-07-09T00:20:55;22.50;38.80
67101;DHT22;54019;61.746;16.106;2022-07-09T00:23:41;22.50;39.50
67101;DHT22;54019;61.746;16.106;2022-07-09T00:26:28;22.50;38.90
67101;DHT22;54019;61.746;16.106;2022-07-09T00:29:14;22.50;38.90
67101;DHT22;54019;61.746;16.106;2022-07-09T00:32:00;22.50;38.80
67101;DHT22;54019;61.746;16.106;2022-07-09T00:34:46;22.50;38.90
67101;DHT22;54019;61.746;16.106;2022-07-09T00:37:33;22.50;38.90
67101;DHT22;54019;61.746;16.106;2022-07-09T00:40:19;22.50;38.90
67101;DHT22;54019;61.746;16.106;2022-07-09T00:43:16;22.50;39.00
67101;DHT22;54019;61.746;16.106;2022-07-09T00:46:03;22.50;39.00
67101;DHT22;54019;61.746;16.106;2022-07-09T00:48:49;22.50;39.00
67101;DHT22;54019;61.746;16.106;2022-07-09T00:51:35;22.50;39.00
67101;DHT22;54019;61.746;16.106;2022-07-09T00:54:23;22.50;39.00
67101;DHT22;54019;61.746;16.106;2022-07-09T00:57:10;22.50;39.00
67101;DHT22;54019;61.746;16.106;2022-07-09T00:59:58;22.50;38.90
67101;DHT22;54019;61.746;16.106;2022-07-09T01:02:47;22.50;38.90
67101;DHT22;54019;61.746;16.106;2022-07-09T01:05:33;22.50;39.00
67101;DHT22;54019;61.746;16.106;2022-07-09T01:08:19;22.50;39.00
67101;DHT22;54019;61.746;16.106;2022-07-09T01:11:05;22.50;39.00
67101;DHT22;54019;61.746;16.106;2022-07-09T01:13:51;22.50;39.10
67101;DHT22;54019;61.746;16.106;2022-07-09T01:16:39;22.50;39.10
67101;DHT22;54019;61.746;16.106;2022-07-09T01:19:26;22.50;39.10
67101;DHT22;54019;61.746;16.106;2022-07-09T01:22:14;22.50;39.20
67101;DHT22;54019;61.746;16.106;2022-07-09T01:25:00;22.50;39.10
67101;DHT22;54019;61.746;16.106;2022-07-09T01:27:47;22.50;39.20
67101;DHT22;54019;61.746;16.106;2022-07-09T01:30:34;22.40;39.10
67101;DHT22;54019;61.746;16.106;2022-07-09T01:33:20;22.50;39.20
67101;DHT22;54019;61.746;16.106;2022-07-09T01:36:07;22.40;39.10
67101;DHT22;54019;61.746;16.106;2022-07-09T01:38:54;22.40;39.30
67101;DHT22;54019;61.746;16.106;2022-07-09T01:41:40;22.40;39.20
67101;DHT22;54019;61.746;16.106;2022-07-09T01:44:27;22.50;39.40
67101;DHT22;54019;61.746;16.106;2022-07-09T01:47:13;22.50;39.40
67101;DHT22;54019;61.746;16.106;2022-07-09T01:49:59;22.40;39.30
67101;DHT22;54019;61.746;16.106;2022-07-09T01:52:45;22.40;39.50
67101;DHT22;54019;61.746;16.106;2022-07-09T01:55:33;22.40;39.60
67101;DHT22;54019;61.746;16.106;2022-07-09T01:58:19;22.40;39.40
67101;DHT22;54019;61.746;16.106;2022-07-09T02:01:05;22.40;39.60
67101;DHT22;54019;61.746;16.106;2022-07-09T02:03:51;22.40;39.60
67101;DHT22;54019;61.746;16.106;2022-07-09T02:06:37;22.40;39.60
67101;DHT22;54019;61.746;16.106;2022-07-09T02:09:24;22.40;39.60
67101;DHT22;54019;61.746;16.106;2022-07-09T02:12:11;22.40;39.70
67101;DHT22;54019;61.746;16.106;2022-07-09T02:14:57;22.40;39.70
67101;DHT22;54019;61.746;16.106;2022-07-09T02:17:43;22.40;39.70
67101;DHT22;54019;61.746;16.106;2022-07-09T02:20:29;22.40;39.80
67101;DHT22;54019;61.746;16.106;2022-07-09T02:23:16;22.30;39.80
67101;DHT22;54019;61.746;16.106;2022-07-09T02:26:02;22.30;39.80
67101;DHT22;54019;61.746;16.106;2022-07-09T02:28:49;22.40;39.80
67101;DHT22;54019;61.746;16.106;2022-07-09T02:31:35;22.40;39.80
67101;DHT22;54019;61.746;16.106;2022-07-09T02:34:21;22.40;39.80
67101;DHT22;54019;61.746;16.106;2022-07-09T02:37:08;22.30;39.80
67101;DHT22;54019;61.746;16.106;2022-07-09T02:39:54;22.40;39.80
67101;DHT22;54019;61.746;16.106;2022-07-09T02:42:40;22.40;39.80
67101;DHT22;54019;61.746;16.106;2022-07-09T02:45:28;22.40;39.90
67101;DHT22;54019;61.746;16.106;2022-07-09T02:48:14;22.40;39.80
67101;DHT22;54019;61.746;16.106;2022-07-09T02:51:00;22.30;39.90
67101;DHT22;54019;61.746;16.106;2022-07-09T02:53:46;22.30;39.90
67101;DHT22;54019;61.746;16.106;2022-07-09T02:56:33;22.30;39.90
67101;DHT22;54019;61.746;16.106;2022-07-09T02:59:19;22.30;39.90
67101;DHT22;54019;61.746;16.106;2022-07-09T03:02:06;22.30;39.90
67101;DHT22;54019;61.746;16.106;2022-07-09T03:04:53;22.30;40.00
67101;DHT22;54019;61.746;16.106;2022-07-09T03:07:39;22.30;40.00
67101;DHT22;54019;61.746;16.106;2022-07-09T03:10:25;22.30;39.90
67101;DHT22;54019;61.746;16.106;2022-07-09T03:13:11;22.30;39.90
67101;DHT22;54019;61.746;16.106;2022-07-09T03:15:57;22.30;40.00
67101;DHT22;54019;61.746;16.106;2022-07-09T03:18:44;22.30;40.00
67101;DHT22;54019;61.746;16.106;2022-07-09T03:21:31;22.30;40.00
67101;DHT22;54019;61.746;16.106;2022-07-09T03:24:17;22.30;40.00
67101;DHT22;54019;61.746;16.106;2022-07-09T03:27:03;22.30;40.00
67101;DHT22;54019;61.746;16.106;2022-07-09T03:29:49;22.30;40.10
67101;DHT22;54019;61.746;16.106;2022-07-09T03:32:35;22.30;40.10
67101;DHT22;54019;61.746;16.106;2022-07-09T03:35:23;22.30;40.00
67101;DHT22;54019;61.746;16.106;2022-07-09T03:38:09;22.30;39.90
67101;DHT22;54019;61.746;16.106;2022-07-09T03:40:55;22.30;40.10
67101;DHT22;54019;61.746;16.106;2022-07-09T03:43:41;22.30;40.10
67101;DHT22;54019;61.746;16.106;2022-07-09T03:46:27;22.30;40.20
67101;DHT22;54019;61.746;16.106;2022-07-09T03:49:14;22.30;40.10
67101;DHT22;54019;61.746;16.106;2022-07-09T03:52:01;22.30;40.20
67101;DHT22;54019;61.746;16.106;2022-07-09T03:54:47;22.30;40.10
67101;DHT22;54019;61.746;16.106;2022-07-09T03:57:33;22.30;39.90
67101;DHT22;54019;61.746;16.106;2022-07-09T04:00:20;22.40;39.80
67101;DHT22;54019;61.746;16.106;2022-07-09T04:03:06;22.40;39.70
67101;DHT22;54019;61.746;16.106;2022-07-09T04:05:52;22.40;39.70
67101;DHT22;54019;61.746;16.106;2022-07-09T04:08:39;22.50;39.70
67101;DHT22;54019;61.746;16.106;2022-07-09T04:11:25;22.50;39.70
67101;DHT22;54019;61.746;16.106;2022-07-09T04:14:11;22.50;39.60
67101;DHT22;54019;61.746;16.106;2022-07-09T04:16:58;22.50;39.60
67101;DHT22;54019;61.746;16.106;2022-07-09T04:19:44;22.40;39.60
67101;DHT22;54019;61.746;16.106;2022-07-09T04:22:30;22.50;39.60
67101;DHT22;54019;61.746;16.106;2022-07-09T04:25:18;22.40;39.60
67101;DHT22;54019;61.746;16.106;2022-07-09T04:28:04;22.40;39.50
67101;DHT22;54019;61.746;16.106;2022-07-09T04:30:50;22.40;39.60
67101;DHT22;54019;61.746;16.106;2022-07-09T04:33:36;22.40;39.40
67101;DHT22;54019;61.746;16.106;2022-07-09T04:36:22;22.40;39.50
67101;DHT22;54019;61.746;16.106;2022-07-09T04:39:08;22.40;39.50
67101;DHT22;54019;61.746;16.106;2022-07-09T04:41:56;22.40;39.50
67101;DHT22;54019;61.746;16.106;2022-07-09T04:44:42;22.40;39.60
67101;DHT22;54019;61.746;16.106;2022-07-09T04:47:28;22.40;39.50
67101;DHT22;54019;61.746;16.106;2022-07-09T04:50:14;22.40;39.60
67101;DHT22;54019;61.746;16.106;2022-07-09T04:53:00;22.40;39.70
67101;DHT22;54019;61.746;16.106;2022-07-09T04:55:46;22.30;39.80
67101;DHT22;54019;61.746;16.106;2022-07-09T04:58:34;22.30;39.70
67101;DHT22;54019;61.746;16.106;2022-07-09T05:01:21;22.30;39.50
67101;DHT22;54019;61.746;16.106;2022-07-09T05:04:07;22.30;39.70
67101;DHT22;54019;61.746;16.106;2022-07-09T05:06:53;22.30;39.80
67101;DHT22;54019;61.746;16.106;2022-07-09T05:09:39;22.30;39.90
67101;DHT22;54019;61.746;16.106;2022-07-09T05:12:26;22.30;39.80
67101;DHT22;54019;61.746;16.106;2022-07-09T05:15:13;22.30;40.00
67101;DHT22;54019;61.746;16.106;2022-07-09T05:17:59;22.30;39.90
67101;DHT22;54019;61.746;16.106;2022-07-09T05:20:46;22.30;39.90
67101;DHT22;54019;61.746;16.106;2022-07-09T05:23:32;22.30;39.90
67101;DHT22;54019;61.746;16.106;2022-07-09T05:26:18;22.30;39.90
67101;DHT22;54019;61.746;16.106;2022-07-09T05:29:04;22.30;40.00
67101;DHT22;54019;61.746;16.106;2022-07-09T05:31:52;22.40;39.90
67101;DHT22;54019;61.746;16.106;2022-07-09T05:34:38;22.50;39.90
67101;DHT22;54019;61.746;16.106;2022-07-09T05:37:24;22.50;39.80
67101;DHT22;54019;61.746;16.106;2022-07-09T05:40:11;22.50;39.80
67101;DHT22;54019;61.746;16.106;2022-07-09T05:42:57;22.50;39.80
67101;DHT22;54019;61.746;16.106;2022-07-09T05:45:43;22.50;39.80
67101;DHT22;54019;61.746;16.106;2022-07-09T05:48:31;22.50;39.80
67101;DHT22;54019;61.746;16.106;2022-07-09T05:51:17;22.50;39.80
67101;DHT22;54019;61.746;16.106;2022-07-09T05:54:03;22.50;39.80
67101;DHT22;54019;61.746;16.106;2022-07-09T05:56:49;22.50;39.80
67101;DHT22;54019;61.746;16.106;2022-07-09T05:59:36;22.50;39.80
67101;DHT22;54019;61.746;16.106;2022-07-09T06:02:22;22.40;39.60
67101;DHT22;54019;61.746;16.106;2022-07-09T06:05:09;22.50;39.70
67101;DHT22;54019;61.746;16.106;2022-07-09T06:07:56;22.40;39.50
67101;DHT22;54019;61.746;16.106;2022-07-09T06:10:42;22.40;39.50
67101;DHT22;54019;61.746;16.106;2022-07-09T06:13:28;22.40;39.50
67101;DHT22;54019;61.746;16.106;2022-07-09T06:16:15;22.40;39.60
67101;DHT22;54019;61.746;16.106;2022-07-09T06:19:01;22.40;39.60
67101;DHT22;54019;61.746;16.106;2022-07-09T06:21:48;22.30;39.60
67101;DHT22;54019;61.746;16.106;2022-07-09T06:24:35;22.30;39.60
67101;DHT22;54019;61.746;16.106;2022-07-09T06:27:24;22.30;39.40
67101;DHT22;54019;61.746;16.106;2022-07-09T06:30:10;22.30;39.40
67101;DHT22;54019;61.746;16.106;2022-07-09T06:32:57;22.30;39.60
67101;DHT22;54019;61.746;16.106;2022-07-09T06:35:43;22.30;39.50
67101;DHT22;54019;61.746;16.106;2022-07-09T06:38:30;22.30;39.60
67101;DHT22;54019;61.746;16.106;2022-07-09T06:41:16;22.30;39.70
67101;DHT22;54019;61.746;16.106;2022-07-09T06:44:03;22.30;39.60
67101;DHT22;54019;61.746;16.106;2022-07-09T06:46:49;22.30;39.60
67101;DHT22;54019;61.746;16.106;2022-07-09T06:49:35;22.30;39.60
67101;DHT22;54019;61.746;16.106;2022-07-09T06:52:21;22.30;39.70
67101;DHT22;54019;61.746;16.106;2022-07-09T06:55:09;22.40;39.60
67101;DHT22;54019;61.746;16.106;2022-07-09T06:57:55;22.50;39.60
67101;DHT22;54019;61.746;16.106;2022-07-09T07:00:41;22.50;39.50
67101;DHT22;54019;61.746;16.106;2022-07-09T07:03:27;22.50;39.40
67101;DHT22;54019;61.746;16.106;2022-07-09T07:06:13;22.60;39.30
67101;DHT22;54019;61.746;16.106;2022-07-09T07:08:59;22.60;39.30
67101;DHT22;54019;61.746;16.106;2022-07-09T07:11:47;22.70;39.30
67101;DHT22;54019;61.746;16.106;2022-07-09T07:14:33;22.70;39.20
67101;DHT22;54019;61.746;16.106;2022-07-09T07:17:20;22.70;39.30
67101;DHT22;54019;61.746;16.106;2022-07-09T07:20:06;22.70;39.30
67101;DHT22;54019;61.746;16.106;2022-07-09T07:22:53;22.70;39.30
67101;DHT22;54019;61.746;16.106;2022-07-09T07:25:39;22.70;39.40
67101;DHT22;54019;61.746;16.106;2022-07-09T07:28:26;22.70;39.40
67101;DHT22;54019;61.746;16.106;2022-07-09T07:31:13;22.70;39.50
67101;DHT22;54019;61.746;16.106;2022-07-09T07:33:59;22.60;39.50
67101;DHT22;54019;61.746;16.106;2022-07-09T07:36:45;22.60;39.60
67101;DHT22;54019;61.746;16.106;2022-07-09T07:39:31;22.60;39.60
67101;DHT22;54019;61.746;16.106;2022-07-09T07:42:17;22.60;39.60
67101;DHT22;54019;61.746;16.106;2022-07-09T07:45:06;22.60;39.60
67101;DHT22;54019;61.746;16.106;2022-07-09T07:47:52;22.50;39.60
67101;DHT22;54019;61.746;16.106;2022-07-09T07:50:38;22.50;39.60
67101;DHT22;54019;61.746;16.106;2022-07-09T07:53:24;22.50;39.70
67101;DHT22;54019;61.746;16.106;2022-07-09T07:56:10;22.50;39.60
67101;DHT22;54019;61.746;16.106;2022-07-09T07:58:56;22.50;39.60
67101;DHT22;54019;61.746;16.106;2022-07-09T08:01:44;22.50;39.60
67101;DHT22;54019;61.746;16.106;2022-07-09T08:04:30;22.50;39.60
67101;DHT22;54019;61.746;16.106;2022-07-09T08:07:16;22.50;39.60
67101;DHT22;54019;61.746;16.106;2022-07-09T08:10:03;22.50;39.60
67101;DHT22;54019;61.746;16.106;2022-07-09T08:12:49;22.50;39.60
67101;DHT22;54019;61.746;16.106;2022-07-09T08:15:35;22.50;39.60
67101;DHT22;54019;61.746;16.106;2022-07-09T08:18:23;22.50;39.60
67101;DHT22;54019;61.746;16.106;2022-07-09T08:21:09;22.50;39.60
67101;DHT22;54019;61.746;16.106;2022-07-09T08:23:55;22.40;39.60
67101;DHT22;54019;61.746;16.106;2022-07-09T08:26:41;22.50;39.60
67101;DHT22;54019;61.746;16.106;2022-07-09T08:29:27;22.50;39.50
67101;DHT22;54019;61.746;16.106;2022-07-09T08:32:14;22.50;39.50
67101;DHT22;54019;61.746;16.106;2022-07-09T08:35:01;22.60;39.40
67101;DHT22;54019;61.746;16.106;2022-07-09T08:37:47;22.60;39.30
67101;DHT22;54019;61.746;16.106;2022-07-09T08:40:34;22.60;39.30
67101;DHT22;54019;61.746;16.106;2022-07-09T08:43:20;22.60;39.20
67101;DHT22;54019;61.746;16.106;2022-07-09T08:46:06;22.60;39.20
67101;DHT22;54019;61.746;16.106;2022-07-09T08:48:53;22.60;39.20
67101;DHT22;54019;61.746;16.106;2022-07-09T08:51:41;22.60;39.20
67101;DHT22;54019;61.746;16.106;2022-07-09T08:54:29;22.60;39.20
67101;DHT22;54019;61.746;16.106;2022-07-09T08:57:15;22.60;39.30
67101;DHT22;54019;61.746;16.106;2022-07-09T09:00:02;22.50;39.30
67101;DHT22;54019;61.746;16.106;2022-07-09T09:02:49;22.60;39.30
67101;DHT22;54019;61.746;16.106;2022-07-09T09:05:35;22.50;39.30
67101;DHT22;54019;61.746;16.106;2022-07-09T09:08:22;22.50;39.30
67101;DHT22;54019;61.746;16.106;2022-07-09T09:11:13;22.50;39.20
67101;DHT22;54019;61.746;16.106;2022-07-09T09:14:00;22.50;39.30
67101;DHT22;54019;61.746;16.106;2022-07-09T09:16:46;22.50;39.30
67101;DHT22;54019;61.746;16.106;2022-07-09T09:19:32;22.60;39.30
67101;DHT22;54019;61.746;16.106;2022-07-09T09:22:18;22.50;39.30
67101;DHT22;54019;61.746;16.106;2022-07-09T09:25:07;22.50;39.30
67101;DHT22;54019;61.746;16.106;2022-07-09T09:27:54;22.50;39.40
67101;DHT22;54019;61.746;16.106;2022-07-09T09:30:43;22.50;39.30
67101;DHT22;54019;61.746;16.106;2022-07-09T09:33:29;22.50;39.30
67101;DHT22;54019;61.746;16.106;2022-07-09T09:36:29;22.50;39.40
67101;DHT22;54019;61.746;16.106;2022-07-09T09:39:18;22.50;39.30
67101;DHT22;54019;61.746;16.106;2022-07-09T09:42:06;22.50;39.40
67101;DHT22;54019;61.746;16.106;2022-07-09T09:44:52;22.50;39.40
67101;DHT22;54019;61.746;16.106;2022-07-09T09:47:44;22.50;39.40
67101;DHT22;54019;61.746;16.106;2022-07-09T09:50:31;22.50;39.40
67101;DHT22;54019;61.746;16.106;2022-07-09T09:53:19;22.50;39.40
67101;DHT22;54019;61.746;16.106;2022-07-09T09:56:07;22.50;39.20
67101;DHT22;54019;61.746;16.106;2022-07-09T09:58:55;22.60;39.10
67101;DHT22;54019;61.746;16.106;2022-07-09T10:01:42;22.60;39.10
67101;DHT22;54019;61.746;16.106;2022-07-09T10:04:28;22.60;39.10
67101;DHT22;54019;61.746;16.106;2022-07-09T10:07:15;22.60;38.90
67101;DHT22;54019;61.746;16.106;2022-07-09T10:10:02;22.70;39.00
67101;DHT22;54019;61.746;16.106;2022-07-09T10:12:48;22.70;39.00
67101;DHT22;54019;61.746;16.106;2022-07-09T10:15:36;22.70;39.10
67101;DHT22;54019;61.746;16.106;2022-07-09T10:18:22;22.70;39.10
67101;DHT22;54019;61.746;16.106;2022-07-09T10:21:08;22.60;39.00
67101;DHT22;54019;61.746;16.106;2022-07-09T10:23:54;22.60;38.90
67101;DHT22;54019;61.746;16.106;2022-07-09T10:26:44;22.60;39.00
67101;DHT22;54019;61.746;16.106;2022-07-09T10:29:31;22.60;39.00
67101;DHT22;54019;61.746;16.106;2022-07-09T10:32:25;22.60;39.20
67101;DHT22;54019;61.746;16.106;2022-07-09T10:35:11;22.60;39.00
67101;DHT22;54019;61.746;16.106;2022-07-09T10:37:57;22.60;39.10
67101;DHT22;54019;61.746;16.106;2022-07-09T10:40:45;22.60;39.10
67101;DHT22;54019;61.746;16.106;2022-07-09T10:43:38;22.60;39.10
67101;DHT22;54019;61.746;16.106;2022-07-09T10:46:24;22.60;39.10
67101;DHT22;54019;61.746;16.106;2022-07-09T10:49:12;22.60;39.20
67101;DHT22;54019;61.746;16.106;2022-07-09T10:51:59;22.60;39.20
67101;DHT22;54019;61.746;16.106;2022-07-09T10:54:46;22.60;39.20
67101;DHT22;54019;61.746;16.106;2022-07-09T10:57:34;22.60;39.20
67101;DHT22;54019;61.746;16.106;2022-07-09T11:00:23;22.50;39.20
67101;DHT22;54019;61.746;16.106;2022-07-09T11:03:09;22.50;39.20
67101;DHT22;54019;61.746;16.106;2022-07-09T11:05:57;22.50;39.30
67101;DHT22;54019;61.746;16.106;2022-07-09T11:08:43;22.50;39.20
67101;DHT22;54019;61.746;16.106;2022-07-09T11:11:29;22.50;39.20
67101;DHT22;54019;61.746;16.106;2022-07-09T11:14:16;22.50;39.30
67101;DHT22;54019;61.746;16.106;2022-07-09T11:17:02;22.60;39.30
67101;DHT22;54019;61.746;16.106;2022-07-09T11:19:48;22.50;39.30
67101;DHT22;54019;61.746;16.106;2022-07-09T11:22:36;22.50;39.40
67101;DHT22;54019;61.746;16.106;2022-07-09T11:25:23;22.50;39.40
67101;DHT22;54019;61.746;16.106;2022-07-09T11:28:18;22.50;39.30
67101;DHT22;54019;61.746;16.106;2022-07-09T11:31:05;22.50;39.40
67101;DHT22;54019;61.746;16.106;2022-07-09T11:33:51;22.50;39.40
67101;DHT22;54019;61.746;16.106;2022-07-09T11:36:38;22.50;39.50
67101;DHT22;54019;61.746;16.106;2022-07-09T11:39:27;22.50;39.40
67101;DHT22;54019;61.746;16.106;2022-07-09T11:42:16;22.60;39.30
67101;DHT22;54019;61.746;16.106;2022-07-09T11:45:03;22.60;39.20
67101;DHT22;54019;61.746;16.106;2022-07-09T11:47:49;22.70;39.30
67101;DHT22;54019;61.746;16.106;2022-07-09T11:50:41;22.70;39.20
67101;DHT22;54019;61.746;16.106;2022-07-09T11:53:28;22.70;39.20
67101;DHT22;54019;61.746;16.106;2022-07-09T11:56:15;22.70;39.20
67101;DHT22;54019;61.746;16.106;2022-07-09T11:59:01;22.70;39.10
67101;DHT22;54019;61.746;16.106;2022-07-09T12:01:47;22.70;39.20
67101;DHT22;54019;61.746;16.106;2022-07-09T12:04:34;22.70;39.20
67101;DHT22;54019;61.746;16.106;2022-07-09T12:07:20;22.70;39.20
67101;DHT22;54019;61.746;16.106;2022-07-09T12:10:08;22.70;39.20
67101;DHT22;54019;61.746;16.106;2022-07-09T12:12:56;22.70;39.90
67101;DHT22;54019;61.746;16.106;2022-07-09T12:15:42;22.60;39.10
67101;DHT22;54019;61.746;16.106;2022-07-09T12:18:28;22.70;39.30
67101;DHT22;54019;61.746;16.106;2022-07-09T12:21:14;22.70;39.20
67101;DHT22;54019;61.746;16.106;2022-07-09T12:24:00;22.70;39.20
67101;DHT22;54019;61.746;16.106;2022-07-09T12:26:46;22.70;39.20
67101;DHT22;54019;61.746;16.106;2022-07-09T12:29:34;22.60;39.20
67101;DHT22;54019;61.746;16.106;2022-07-09T12:32:20;22.60;39.30
67101;DHT22;54019;61.746;16.106;2022-07-09T12:35:08;22.60;39.20
67101;DHT22;54019;61.746;16.106;2022-07-09T12:37:54;22.60;39.30
67101;DHT22;54019;61.746;16.106;2022-07-09T12:40:40;22.60;39.30
67101;DHT22;54019;61.746;16.106;2022-07-09T12:43:27;22.60;39.40
67101;DHT22;54019;61.746;16.106;2022-07-09T12:46:14;22.60;39.40
67101;DHT22;54019;61.746;16.106;2022-07-09T12:49:03;22.60;39.30
67101;DHT22;54019;61.746;16.106;2022-07-09T12:51:49;22.50;39.40
67101;DHT22;54019;61.746;16.106;2022-07-09T12:54:35;22.50;39.40
67101;DHT22;54019;61.746;16.106;2022-07-09T12:57:22;22.50;39.50
67101;DHT22;54019;61.746;16.106;2022-07-09T13:00:09;22.50;39.50
67101;DHT22;54019;61.746;16.106;2022-07-09T13:02:57;22.50;39.50
67101;DHT22;54019;61.746;16.106;2022-07-09T13:05:43;22.50;39.60
67101;DHT22;54019;61.746;16.106;2022-07-09T13:08:29;22.50;39.60
67101;DHT22;54019;61.746;16.106;2022-07-09T13:11:15;22.50;39.50
67101;DHT22;54019;61.746;16.106;2022-07-09T13:14:02;22.50;39.50
67101;DHT22;54019;61.746;16.106;2022-07-09T13:16:48;22.50;39.60
67101;DHT22;54019;61.746;16.106;2022-07-09T13:19:35;22.50;39.60
67101;DHT22;54019;61.746;16.106;2022-07-09T13:22:21;22.50;39.50
67101;DHT22;54019;61.746;16.106;2022-07-09T13:25:08;22.40;39.50
67101;DHT22;54019;61.746;16.106;2022-07-09T13:27:54;22.50;39.60
67101;DHT22;54019;61.746;16.106;2022-07-09T13:30:40;22.50;39.80
67101;DHT22;54019;61.746;16.106;2022-07-09T13:33:26;22.40;39.60
67101;DHT22;54019;61.746;16.106;2022-07-09T13:36:14;22.50;39.80
67101;DHT22;54019;61.746;16.106;2022-07-09T13:39:00;22.50;39.60
67101;DHT22;54019;61.746;16.106;2022-07-09T13:41:46;22.50;39.50
67101;DHT22;54019;61.746;16.106;2022-07-09T13:44:32;22.60;39.40
67101;DHT22;54019;61.746;16.106;2022-07-09T13:47:18;22.60;39.40
67101;DHT22;54019;61.746;16.106;2022-07-09T13:50:05;22.70;39.40
67101;DHT22;54019;61.746;16.106;2022-07-09T13:52:53;22.70;39.40
67101;DHT22;54019;61.746;16.106;2022-07-09T13:55:39;22.70;39.40
67101;DHT22;54019;61.746;16.106;2022-07-09T13:58:25;22.70;39.30
67101;DHT22;54019;61.746;16.106;2022-07-09T14:01:12;22.70;40.00
67101;DHT22;54019;61.746;16.106;2022-07-09T14:03:58;22.70;39.40
67101;DHT22;54019;61.746;16.106;2022-07-09T14:06:44;22.80;39.30
67101;DHT22;54019;61.746;16.106;2022-07-09T14:09:31;22.70;39.30
67101;DHT22;54019;61.746;16.106;2022-07-09T14:12:18;22.70;39.30
67101;DHT22;54019;61.746;16.106;2022-07-09T14:15:05;22.80;39.30
67101;DHT22;54019;61.746;16.106;2022-07-09T14:17:51;22.80;39.30
67101;DHT22;54019;61.746;16.106;2022-07-09T14:20:37;22.70;39.30
67101;DHT22;54019;61.746;16.106;2022-07-09T14:23:23;22.70;39.20
67101;DHT22;54019;61.746;16.106;2022-07-09T14:26:11;22.80;39.30
67101;DHT22;54019;61.746;16.106;2022-07-09T14:28:57;22.80;39.30
67101;DHT22;54019;61.746;16.106;2022-07-09T14:31:43;22.70;39.30
67101;DHT22;54019;61.746;16.106;2022-07-09T14:34:29;22.80;39.30
67101;DHT22;54019;61.746;16.106;2022-07-09T14:37:15;22.70;39.30
67101;DHT22;54019;61.746;16.106;2022-07-09T14:40:02;22.70;39.20
67101;DHT22;54019;61.746;16.106;2022-07-09T14:42:49;22.70;39.20
67101;DHT22;54019;61.746;16.106;2022-07-09T14:45:35;22.70;39.20
67101;DHT22;54019;61.746;16.106;2022-07-09T14:48:21;22.70;39.20
67101;DHT22;54019;61.746;16.106;2022-07-09T14:51:08;22.70;39.20
67101;DHT22;54019;61.746;16.106;2022-07-09T14:53:54;22.70;39.20
67101;DHT22;54019;61.746;16.106;2022-07-09T14:56:40;22.70;39.20
67101;DHT22;54019;61.746;16.106;2022-07-09T14:59:27;22.70;39.20
67101;DHT22;54019;61.746;16.106;2022-07-09T15:02:14;22.70;39.20
67101;DHT22;54019;61.746;16.106;2022-07-09T15:05:00;22.70;39.30
67101;DHT22;54019;61.746;16.106;2022-07-09T15:07:46;22.70;39.30
67101;DHT22;54019;61.746;16.106;2022-07-09T15:10:32;22.70;39.20
67101;DHT22;54019;61.746;16.106;2022-07-09T15:13:18;22.70;39.20
67101;DHT22;54019;61.746;16.106;2022-07-09T15:16:06;22.70;39.40
67101;DHT22;54019;61.746;16.106;2022-07-09T15:18:52;22.80;39.30
67101;DHT22;54019;61.746;16.106;2022-07-09T15:21:38;22.70;39.40
67101;DHT22;54019;61.746;16.106;2022-07-09T15:24:24;22.70;39.40
67101;DHT22;54019;61.746;16.106;2022-07-09T15:27:11;22.70;39.50
67101;DHT22;54019;61.746;16.106;2022-07-09T15:29:57;22.70;39.50
67101;DHT22;54019;61.746;16.106;2022-07-09T15:32:45;22.70;39.50
67101;DHT22;54019;61.746;16.106;2022-07-09T15:35:31;22.60;39.40
67101;DHT22;54019;61.746;16.106;2022-07-09T15:38:17;22.70;39.50
67101;DHT22;54019;61.746;16.106;2022-07-09T15:41:03;22.60;39.40
67101;DHT22;54019;61.746;16.106;2022-07-09T15:43:49;22.60;39.40
67101;DHT22;54019;61.746;16.106;2022-07-09T15:46:35;22.60;39.40
67101;DHT22;54019;61.746;16.106;2022-07-09T15:49:23;22.60;39.40
67101;DHT22;54019;61.746;16.106;2022-07-09T15:52:09;22.60;39.50
67101;DHT22;54019;61.746;16.106;2022-07-09T15:54:55;22.60;39.60
67101;DHT22;54019;61.746;16.106;2022-07-09T15:57:41;22.60;39.50
67101;DHT22;54019;61.746;16.106;2022-07-09T16:00:28;22.60;39.50
67101;DHT22;54019;61.746;16.106;2022-07-09T16:03:14;22.50;39.60
67101;DHT22;54019;61.746;16.106;2022-07-09T16:06:01;22.50;39.70
67101;DHT22;54019;61.746;16.106;2022-07-09T16:08:47;22.50;39.70
67101;DHT22;54019;61.746;16.106;2022-07-09T16:11:33;22.50;39.70
67101;DHT22;54019;61.746;16.106;2022-07-09T16:14:20;22.50;39.70
67101;DHT22;54019;61.746;16.106;2022-07-09T16:17:06;22.50;39.80
67101;DHT22;54019;61.746;16.106;2022-07-09T16:19:52;22.50;39.80
67101;DHT22;54019;61.746;16.106;2022-07-09T16:22:40;22.50;39.70
67101;DHT22;54019;61.746;16.106;2022-07-09T16:25:26;22.50;39.90
67101;DHT22;54019;61.746;16.106;2022-07-09T16:28:12;22.50;39.90
67101;DHT22;54019;61.746;16.106;2022-07-09T16:30:59;22.40;39.80
67101;DHT22;54019;61.746;16.106;2022-07-09T16:33:45;22.40;39.80
67101;DHT22;54019;61.746;16.106;2022-07-09T16:36:31;22.40;40.50
67101;DHT22;54019;61.746;16.106;2022-07-09T16:39:19;22.50;39.90
67101;DHT22;54019;61.746;16.106;2022-07-09T16:42:05;22.40;39.80
67101;DHT22;54019;61.746;16.106;2022-07-09T16:44:51;22.40;39.80
67101;DHT22;54019;61.746;16.106;2022-07-09T16:47:37;22.40;39.80
67101;DHT22;54019;61.746;16.106;2022-07-09T16:50:23;22.40;39.80
67101;DHT22;54019;61.746;16.106;2022-07-09T16:53:09;22.40;39.80
67101;DHT22;54019;61.746;16.106;2022-07-09T16:55:57;22.40;39.80
67101;DHT22;54019;61.746;16.106;2022-07-09T16:58:43;22.50;39.80
67101;DHT22;54019;61.746;16.106;2022-07-09T17:01:29;22.50;39.60
67101;DHT22;54019;61.746;16.106;2022-07-09T17:04:15;22.50;39.50
67101;DHT22;54019;61.746;16.106;2022-07-09T17:07:02;22.50;39.50
67101;DHT22;54019;61.746;16.106;2022-07-09T17:09:48;22.60;39.40
67101;DHT22;54019;61.746;16.106;2022-07-09T17:12:36;22.60;39.50
67101;DHT22;54019;61.746;16.106;2022-07-09T17:15:22;22.60;39.40